sensor_id;sensor_type;location;lat;lon;timestamp;pressure;altitude;pressure_sealevel;temperature;humidity
74633;BME280;63139;52.018;8.552;2023-02-21T00:02:22;100738.47;;;8.29;92.79
74633;BME280;63139;52.018;8.552;2023-02-21T00:05:08;100740.44;;;8.27;92.73
74633;BME280;63139;52.018;8.552;2023-02-21T00:07:53;100741.25;;;8.28;92.78
74633;BME280;63139;52.018;8.552;2023-02-21T00:10:40;100740.56;;;8.26;92.88
74633;BME280;63139;52.018;8.552;2023-02-21T00:13:25;100740.28;;;8.29;92.88
74633;BME280;63139;52.018;8.552;2023-02-21T00:16:13;100730.72;;;8.28;92.88
74633;BME280;63139;52.018;8.552;2023-02-21T00:18:58;100724.59;;;8.27;92.69
74633;BME280;63139;52.018;8.552;2023-02-21T00:21:44;100730.84;;;8.26;92.73
74633;BME280;63139;52.018;8.552;2023-02-21T00:24:29;100735.16;;;8.27;92.72
74633;BME280;63139;52.018;8.552;2023-02-21T00:27:15;100744.72;;;8.28;92.62
74633;BME280;63139;52.018;8.552;2023-02-21T00:30:00;100731.41;;;8.30;92.68
74633;BME280;63139;52.018;8.552;2023-02-21T00:32:48;100718.22;;;8.30;92.42
74633;BME280;63139;52.018;8.552;2023-02-21T00:35:33;100720.84;;;8.30;92.50
74633;BME280;63139;52.018;8.552;2023-02-21T00:38:18;100725.56;;;8.26;92.94
74633;BME280;63139;52.018;8.552;2023-02-21T00:41:04;100729.03;;;8.27;92.58
74633;BME280;63139;52.018;8.552;2023-02-21T00:43:50;100737.78;;;8.27;92.51
74633;BME280;63139;52.018;8.552;2023-02-21T00:46:35;100719.19;;;8.29;92.54
74633;BME280;63139;52.018;8.552;2023-02-21T00:49:21;100728.06;;;8.28;92.37
74633;BME280;63139;52.018;8.552;2023-02-21T00:52:06;100726.81;;;8.32;92.32
74633;BME280;63139;52.018;8.552;2023-02-21T00:54:51;100723.06;;;8.34;92.17
74633;BME280;63139;52.018;8.552;2023-02-21T00:57:37;100731.66;;;8.36;91.93
74633;BME280;63139;52.018;8.552;2023-02-21T01:00:24;100729.69;;;8.38;91.96
74633;BME280;63139;52.018;8.552;2023-02-21T01:03:09;100728.72;;;8.39;91.78
74633;BME280;63139;52.018;8.552;2023-02-21T01:05:55;100725.09;;;8.40;92.13
74633;BME280;63139;52.018;8.552;2023-02-21T01:08:42;100713.72;;;8.40;91.90
74633;BME280;63139;52.018;8.552;2023-02-21T01:11:27;100706.34;;;8.43;91.82
74633;BME280;63139;52.018;8.552;2023-02-21T01:14:13;100711.47;;;8.45;91.77
74633;BME280;63139;52.018;8.552;2023-02-21T01:17:00;100720.19;;;8.45;91.71
74633;BME280;63139;52.018;8.552;2023-02-21T01:19:45;100723.66;;;8.46;91.86
74633;BME280;63139;52.018;8.552;2023-02-21T01:22:32;100719.22;;;8.46;91.58
74633;BME280;63139;52.018;8.552;2023-02-21T01:25:19;100724.81;;;8.43;91.57
74633;BME280;63139;52.018;8.552;2023-02-21T01:28:04;100718.56;;;8.44;91.47
74633;BME280;63139;52.018;8.552;2023-02-21T01:30:49;100729.66;;;8.48;91.44
74633;BME280;63139;52.018;8.552;2023-02-21T01:33:38;100728.13;;;8.45;91.47
74633;BME280;63139;52.018;8.552;2023-02-21T01:36:24;100721.72;;;8.48;91.42
74633;BME280;63139;52.018;8.552;2023-02-21T01:39:10;100739.38;;;8.47;91.43
74633;BME280;63139;52.018;8.552;2023-02-21T01:41:56;100738.38;;;8.48;91.53
74633;BME280;63139;52.018;8.552;2023-02-21T01:44:42;100732.97;;;8.50;91.22
74633;BME280;63139;52.018;8.552;2023-02-21T01:47:28;100737.09;;;8.52;91.25
74633;BME280;63139;52.018;8.552;2023-02-21T01:50:19;100724.91;;;8.51;91.02
74633;BME280;63139;52.018;8.552;2023-02-21T01:53:09;100731.03;;;8.52;91.02
74633;BME280;63139;52.018;8.552;2023-02-21T01:55:56;100725.75;;;8.52;91.06
74633;BME280;63139;52.018;8.552;2023-02-21T01:58:48;100730.19;;;8.51;91.14
74633;BME280;63139;52.018;8.552;2023-02-21T02:01:42;100729.19;;;8.52;91.13
74633;BME280;63139;52.018;8.552;2023-02-21T02:04:31;100733.50;;;8.53;91.17
74633;BME280;63139;52.018;8.552;2023-02-21T02:07:19;100720.28;;;8.53;91.13
74633;BME280;63139;52.018;8.552;2023-02-21T02:10:06;100715.84;;;8.54;90.99
74633;BME280;63139;52.018;8.552;2023-02-21T02:13:10;100722.78;;;8.55;90.93
74633;BME280;63139;52.018;8.552;2023-02-21T02:15:41;100727.94;;;8.56;91.10
74633;BME280;63139;52.018;8.552;2023-02-21T02:18:43;100726.13;;;8.57;90.83
74633;BME280;63139;52.018;8.552;2023-02-21T02:24:53;100724.31;;;8.57;91.02
74633;BME280;63139;52.018;8.552;2023-02-21T02:27:36;100720.97;;;8.55;91.06
74633;BME280;63139;52.018;8.552;2023-02-21T02:34:04;100721.81;;;8.56;91.10
74633;BME280;63139;52.018;8.552;2023-02-21T02:36:42;100736.81;;;8.55;91.00
74633;BME280;63139;52.018;8.552;2023-02-21T02:39:20;100733.19;;;8.56;91.07
74633;BME280;63139;52.018;8.552;2023-02-21T02:41:56;100723.34;;;8.59;90.88
74633;BME280;63139;52.018;8.552;2023-02-21T02:44:34;100725.16;;;8.58;90.97
74633;BME280;63139;52.018;8.552;2023-02-21T02:47:06;100725.66;;;8.62;90.92
74633;BME280;63139;52.018;8.552;2023-02-21T02:49:37;100731.78;;;8.62;90.84
74633;BME280;63139;52.018;8.552;2023-02-21T02:52:09;100735.25;;;8.63;90.72
74633;BME280;63139;52.018;8.552;2023-02-21T02:54:37;100732.47;;;8.64;90.86
74633;BME280;63139;52.018;8.552;2023-02-21T02:57:08;100728.00;;;8.65;90.64
74633;BME280;63139;52.018;8.552;2023-02-21T02:59:41;100729.97;;;8.63;90.87
74633;BME280;63139;52.018;8.552;2023-02-21T03:02:36;100741.34;;;8.63;90.71
74633;BME280;63139;52.018;8.552;2023-02-21T03:05:27;100732.31;;;8.66;90.63
74633;BME280;63139;52.018;8.552;2023-02-21T03:08:07;100736.91;;;8.64;90.57
74633;BME280;63139;52.018;8.552;2023-02-21T03:10:45;100747.19;;;8.67;90.60
74633;BME280;63139;52.018;8.552;2023-02-21T03:13:17;100742.69;;;8.67;90.47
74633;BME280;63139;52.018;8.552;2023-02-21T03:15:51;100752.47;;;8.67;90.63
74633;BME280;63139;52.018;8.552;2023-02-21T03:18:25;100754.78;;;8.70;90.52
74633;BME280;63139;52.018;8.552;2023-02-21T03:20:56;100755.09;;;8.67;90.22
74633;BME280;63139;52.018;8.552;2023-02-21T03:23:28;100759.53;;;8.66;90.48
74633;BME280;63139;52.018;8.552;2023-02-21T03:26:01;100761.34;;;8.66;90.45
74633;BME280;63139;52.018;8.552;2023-02-21T03:28:31;100759.53;;;8.66;90.48
74633;BME280;63139;52.018;8.552;2023-02-21T03:31:01;100763.00;;;8.67;90.61
74633;BME280;63139;52.018;8.552;2023-02-21T03:33:31;100763.81;;;8.67;90.47
74633;BME280;63139;52.018;8.552;2023-02-21T03:35:59;100774.38;;;8.67;90.56
74633;BME280;63139;52.018;8.552;2023-02-21T03:38:31;100765.78;;;8.65;90.54
74633;BME280;63139;52.018;8.552;2023-02-21T03:40:59;100765.66;;;8.67;90.43
74633;BME280;63139;52.018;8.552;2023-02-21T03:43:28;100771.72;;;8.67;90.61
74633;BME280;63139;52.018;8.552;2023-02-21T03:45:59;100771.59;;;8.69;90.47
74633;BME280;63139;52.018;8.552;2023-02-21T03:48:27;100767.97;;;8.70;90.41
74633;BME280;63139;52.018;8.552;2023-02-21T03:51:07;100764.50;;;8.69;90.62
74633;BME280;63139;52.018;8.552;2023-02-21T03:53:37;100767.00;;;8.71;90.69
74633;BME280;63139;52.018;8.552;2023-02-21T03:56:06;100766.84;;;8.72;90.40
74633;BME280;63139;52.018;8.552;2023-02-21T03:58:54;100771.59;;;8.69;90.47
74633;BME280;63139;52.018;8.552;2023-02-21T04:01:22;100762.84;;;8.68;90.28
74633;BME280;63139;52.018;8.552;2023-02-21T04:03:51;100756.59;;;8.69;90.44
74633;BME280;63139;52.018;8.552;2023-02-21T04:06:20;100757.56;;;8.68;90.51
74633;BME280;63139;52.018;8.552;2023-02-21T04:08:49;100752.28;;;8.68;90.56
74633;BME280;63139;52.018;8.552;2023-02-21T04:11:19;100761.34;;;8.66;90.47
74633;BME280;63139;52.018;8.552;2023-02-21T04:13:49;100769.25;;;8.66;90.52
74633;BME280;63139;52.018;8.552;2023-02-21T04:16:17;100754.91;;;8.68;90.66
74633;BME280;63139;52.018;8.552;2023-02-21T04:18:46;100755.91;;;8.67;90.52
74633;BME280;63139;52.018;8.552;2023-02-21T04:21:16;100752.59;;;8.65;90.21
74633;BME280;63139;52.018;8.552;2023-02-21T04:23:43;100744.69;;;8.65;90.55
74633;BME280;63139;52.018;8.552;2023-02-21T04:26:13;100736.91;;;8.64;90.66
74633;BME280;63139;52.018;8.552;2023-02-21T04:28:45;100735.53;;;8.60;90.85
74633;BME280;63139;52.018;8.552;2023-02-21T04:31:15;100735.25;;;8.63;90.70
74633;BME280;63139;52.018;8.552;2023-02-21T04:33:44;100730.78;;;8.63;90.74
74633;BME280;63139;52.018;8.552;2023-02-21T04:36:17;100730.09;;;8.61;90.72
74633;BME280;63139;52.018;8.552;2023-02-21T04:38:44;100726.50;;;8.62;90.87
74633;BME280;63139;52.018;8.552;2023-02-21T04:41:13;100724.69;;;8.63;90.90
74633;BME280;63139;52.018;8.552;2023-02-21T04:43:43;100710.81;;;8.61;90.98
74633;BME280;63139;52.018;8.552;2023-02-21T04:46:12;100723.84;;;8.62;91.08
74633;BME280;63139;52.018;8.552;2023-02-21T04:48:41;100718.06;;;8.59;90.77
74633;BME280;63139;52.018;8.552;2023-02-21T04:51:09;100718.72;;;8.61;91.00
74633;BME280;63139;52.018;8.552;2023-02-21T04:53:41;100711.78;;;8.60;90.94
74633;BME280;63139;52.018;8.552;2023-02-21T04:56:09;100716.06;;;8.61;90.84
74633;BME280;63139;52.018;8.552;2023-02-21T04:58:40;100710.16;;;8.59;91.01
74633;BME280;63139;52.018;8.552;2023-02-21T05:01:11;100711.25;;;8.56;91.05
74633;BME280;63139;52.018;8.552;2023-02-21T05:03:40;100705.16;;;8.55;91.12
74633;BME280;63139;52.018;8.552;2023-02-21T05:06:07;100702.38;;;8.57;91.12
74633;BME280;63139;52.018;8.552;2023-02-21T05:08:35;100706.81;;;8.56;91.24
74633;BME280;63139;52.018;8.552;2023-02-21T05:11:03;100706.81;;;8.56;91.39
74633;BME280;63139;52.018;8.552;2023-02-21T05:13:33;100699.03;;;8.55;91.21
74633;BME280;63139;52.018;8.552;2023-02-21T05:16:02;100703.50;;;8.54;91.23
74633;BME280;63139;52.018;8.552;2023-02-21T05:18:30;100702.78;;;8.52;91.46
74633;BME280;63139;52.018;8.552;2023-02-21T05:21:00;100698.34;;;8.53;91.44
74633;BME280;63139;52.018;8.552;2023-02-21T05:23:29;100702.97;;;8.51;91.40
74633;BME280;63139;52.018;8.552;2023-02-21T05:26:05;100705.75;;;8.49;91.60
74633;BME280;63139;52.018;8.552;2023-02-21T05:28:34;100705.91;;;8.48;91.55
74633;BME280;63139;52.018;8.552;2023-02-21T05:31:04;100707.56;;;8.49;91.76
74633;BME280;63139;52.018;8.552;2023-02-21T05:33:32;100701.59;;;8.47;91.75
74633;BME280;63139;52.018;8.552;2023-02-21T05:36:00;100694.22;;;8.50;91.61
74633;BME280;63139;52.018;8.552;2023-02-21T05:38:28;100693.38;;;8.50;91.68
74633;BME280;63139;52.018;8.552;2023-02-21T05:40:55;100692.19;;;8.44;92.02
74633;BME280;63139;52.018;8.552;2023-02-21T05:43:23;100698.13;;;8.46;91.91
74633;BME280;63139;52.018;8.552;2023-02-21T05:45:54;100699.09;;;8.45;92.04
74633;BME280;63139;52.018;8.552;2023-02-21T05:48:23;100696.47;;;8.45;91.99
74633;BME280;63139;52.018;8.552;2023-02-21T05:50:51;100694.97;;;8.43;92.18
74633;BME280;63139;52.018;8.552;2023-02-21T05:53:19;100701.91;;;8.44;92.05
74633;BME280;63139;52.018;8.552;2023-02-21T05:55:47;100699.28;;;8.44;92.07
74633;BME280;63139;52.018;8.552;2023-02-21T05:58:14;100705.19;;;8.46;92.19
74633;BME280;63139;52.018;8.552;2023-02-21T06:00:42;100706.19;;;8.45;92.05
74633;BME280;63139;52.018;8.552;2023-02-21T06:03:10;100707.69;;;8.47;92.02
74633;BME280;63139;52.018;8.552;2023-02-21T06:05:39;100697.97;;;8.48;91.68
74633;BME280;63139;52.018;8.552;2023-02-21T06:08:07;100707.69;;;8.47;91.95
74633;BME280;63139;52.018;8.552;2023-02-21T06:10:39;100702.28;;;8.49;92.04
74633;BME280;63139;52.018;8.552;2023-02-21T06:13:06;100699.66;;;8.49;92.12
74633;BME280;63139;52.018;8.552;2023-02-21T06:15:34;100697.00;;;8.49;92.00
74633;BME280;63139;52.018;8.552;2023-02-21T06:18:02;100700.09;;;8.44;92.16
74633;BME280;63139;52.018;8.552;2023-02-21T06:20:30;100697.28;;;8.46;92.21
74633;BME280;63139;52.018;8.552;2023-02-21T06:22:59;100707.00;;;8.45;92.16
74633;BME280;63139;52.018;8.552;2023-02-21T06:25:27;100707.00;;;8.45;92.12
74633;BME280;63139;52.018;8.552;2023-02-21T06:27:55;100706.19;;;8.45;91.90
74633;BME280;63139;52.018;8.552;2023-02-21T06:30:23;100708.69;;;8.46;92.02
74633;BME280;63139;52.018;8.552;2023-02-21T06:32:50;100710.81;;;8.43;91.97
74633;BME280;63139;52.018;8.552;2023-02-21T06:35:18;100715.63;;;8.47;91.89
74633;BME280;63139;52.018;8.552;2023-02-21T06:37:46;100718.25;;;8.47;91.62
74633;BME280;63139;52.018;8.552;2023-02-21T06:40:15;100713.28;;;8.44;91.63
74633;BME280;63139;52.018;8.552;2023-02-21T06:42:43;100717.56;;;8.45;91.81
74633;BME280;63139;52.018;8.552;2023-02-21T06:45:10;100725.66;;;8.44;91.73
74633;BME280;63139;52.018;8.552;2023-02-21T06:47:38;100725.47;;;8.45;91.75
74633;BME280;63139;52.018;8.552;2023-02-21T06:50:06;100720.06;;;8.47;91.46
74633;BME280;63139;52.018;8.552;2023-02-21T06:52:35;100739.22;;;8.49;91.57
74633;BME280;63139;52.018;8.552;2023-02-21T06:55:04;100740.88;;;8.50;91.40
74633;BME280;63139;52.018;8.552;2023-02-21T06:57:34;100743.53;;;8.50;91.32
74633;BME280;63139;52.018;8.552;2023-02-21T07:00:02;100740.06;;;8.49;91.43
74633;BME280;63139;52.018;8.552;2023-02-21T07:02:30;100746.84;;;8.52;91.31
74633;BME280;63139;52.018;8.552;2023-02-21T07:04:58;100741.56;;;8.52;91.24
74633;BME280;63139;52.018;8.552;2023-02-21T07:07:26;100744.03;;;8.53;91.32
74633;BME280;63139;52.018;8.552;2023-02-21T07:09:54;100759.03;;;8.53;91.10
74633;BME280;63139;52.018;8.552;2023-02-21T07:12:21;100745.84;;;8.53;91.05
74633;BME280;63139;52.018;8.552;2023-02-21T07:14:51;100754.59;;;8.53;91.07
74633;BME280;63139;52.018;8.552;2023-02-21T07:17:18;100744.03;;;8.53;90.98
74633;BME280;63139;52.018;8.552;2023-02-21T07:19:46;100757.78;;;8.57;91.12
74633;BME280;63139;52.018;8.552;2023-02-21T07:22:14;100761.25;;;8.57;90.96
74633;BME280;63139;52.018;8.552;2023-02-21T07:24:42;100768.47;;;8.55;91.31
74633;BME280;63139;52.018;8.552;2023-02-21T07:27:10;100766.41;;;8.59;91.05
74633;BME280;63139;52.018;8.552;2023-02-21T07:29:37;100753.56;;;8.64;91.27
74633;BME280;63139;52.018;8.552;2023-02-21T07:32:06;100752.59;;;8.65;91.07
74633;BME280;63139;52.018;8.552;2023-02-21T07:34:34;100756.22;;;8.64;91.17
74633;BME280;63139;52.018;8.552;2023-02-21T07:37:02;100759.69;;;8.65;91.26
74633;BME280;63139;52.018;8.552;2023-02-21T07:39:30;100763.31;;;8.64;91.23
74633;BME280;63139;52.018;8.552;2023-02-21T07:41:58;100772.03;;;8.64;91.30
74633;BME280;63139;52.018;8.552;2023-02-21T07:44:28;100771.22;;;8.64;91.47
74633;BME280;63139;52.018;8.552;2023-02-21T07:46:56;100769.25;;;8.66;91.69
74633;BME280;63139;52.018;8.552;2023-02-21T07:49:25;100774.53;;;8.66;91.54
74633;BME280;63139;52.018;8.552;2023-02-21T07:51:53;100768.13;;;8.68;91.70
74633;BME280;63139;52.018;8.552;2023-02-21T07:54:21;100771.59;;;8.69;91.34
74633;BME280;63139;52.018;8.552;2023-02-21T07:56:49;100768.13;;;8.68;91.39
74633;BME280;63139;52.018;8.552;2023-02-21T07:59:17;100759.38;;;8.68;91.40
74633;BME280;63139;52.018;8.552;2023-02-21T08:01:45;100763.25;;;8.73;91.37
74633;BME280;63139;52.018;8.552;2023-02-21T08:04:13;100764.59;;;8.77;90.69
74633;BME280;63139;52.018;8.552;2023-02-21T08:06:47;100759.69;;;8.82;90.58
74633;BME280;63139;52.018;8.552;2023-02-21T08:09:15;100757.44;;;8.87;90.15
74633;BME280;63139;52.018;8.552;2023-02-21T08:11:43;100765.75;;;8.92;90.30
74633;BME280;63139;52.018;8.552;2023-02-21T08:14:11;100767.63;;;9.00;90.27
74633;BME280;63139;52.018;8.552;2023-02-21T08:16:38;100769.81;;;9.05;89.60
74633;BME280;63139;52.018;8.552;2023-02-21T08:19:06;100774.50;;;9.11;89.75
74633;BME280;63139;52.018;8.552;2023-02-21T08:21:35;100774.03;;;9.15;89.44
74633;BME280;63139;52.018;8.552;2023-02-21T08:24:04;100774.31;;;9.12;89.05
74633;BME280;63139;52.018;8.552;2023-02-21T08:26:32;100778.13;;;9.10;89.19
74633;BME280;63139;52.018;8.552;2023-02-21T08:29:00;100777.50;;;9.16;89.09
74633;BME280;63139;52.018;8.552;2023-02-21T08:31:29;100782.66;;;9.17;89.10
74633;BME280;63139;52.018;8.552;2023-02-21T08:33:56;100780.91;;;9.26;89.29
74633;BME280;63139;52.018;8.552;2023-02-21T08:36:30;100788.00;;;9.25;88.87
74633;BME280;63139;52.018;8.552;2023-02-21T08:38:57;100783.22;;;9.29;88.86
74633;BME280;63139;52.018;8.552;2023-02-21T08:41:34;100785.72;;;9.30;88.91
74633;BME280;63139;52.018;8.552;2023-02-21T08:44:01;100787.06;;;9.34;88.92
74633;BME280;63139;52.018;8.552;2023-02-21T08:46:29;100793.41;;;9.42;88.24
74633;BME280;63139;52.018;8.552;2023-02-21T08:48:57;100786.16;;;9.44;88.10
74633;BME280;63139;52.018;8.552;2023-02-21T08:51:25;100792.50;;;9.51;87.89
74633;BME280;63139;52.018;8.552;2023-02-21T08:53:53;100783.44;;;9.53;88.18
74633;BME280;63139;52.018;8.552;2023-02-21T08:56:22;100790.59;;;9.61;87.60
74633;BME280;63139;52.018;8.552;2023-02-21T08:58:52;100785.72;;;9.74;86.99
74633;BME280;63139;52.018;8.552;2023-02-21T09:01:21;100780.66;;;9.81;87.27
74633;BME280;63139;52.018;8.552;2023-02-21T09:03:49;100785.25;;;9.79;86.94
74633;BME280;63139;52.018;8.552;2023-02-21T09:06:17;100792.34;;;9.78;86.42
74633;BME280;63139;52.018;8.552;2023-02-21T09:08:45;100791.56;;;9.86;87.18
74633;BME280;63139;52.018;8.552;2023-02-21T09:11:13;100789.16;;;9.92;87.11
74633;BME280;63139;52.018;8.552;2023-02-21T09:13:41;100793.00;;;9.98;86.44
74633;BME280;63139;52.018;8.552;2023-02-21T09:16:10;100791.53;;;10.03;85.97
74633;BME280;63139;52.018;8.552;2023-02-21T09:18:38;100786.94;;;10.05;86.26
74633;BME280;63139;52.018;8.552;2023-02-21T09:21:06;100787.94;;;10.12;85.78
74633;BME280;63139;52.018;8.552;2023-02-21T09:23:34;100785.22;;;10.22;85.94
74633;BME280;63139;52.018;8.552;2023-02-21T09:26:02;100786.97;;;10.13;85.51
74633;BME280;63139;52.018;8.552;2023-02-21T09:28:30;100776.75;;;10.19;85.86
74633;BME280;63139;52.018;8.552;2023-02-21T09:30:57;100779.94;;;10.30;86.14
74633;BME280;63139;52.018;8.552;2023-02-21T09:33:26;100783.31;;;10.40;85.05
74633;BME280;63139;52.018;8.552;2023-02-21T09:35:56;100786.09;;;10.39;84.80
74633;BME280;63139;52.018;8.552;2023-02-21T09:38:24;100779.81;;;10.40;85.21
74633;BME280;63139;52.018;8.552;2023-02-21T09:40:55;100782.34;;;10.49;84.07
74633;BME280;63139;52.018;8.552;2023-02-21T09:43:28;100788.78;;;10.47;83.93
74633;BME280;63139;52.018;8.552;2023-02-21T09:46:01;100785.88;;;10.58;84.24
74633;BME280;63139;52.018;8.552;2023-02-21T09:48:31;100777.47;;;10.71;83.80
74633;BME280;63139;52.018;8.552;2023-02-21T09:51:03;100788.75;;;10.81;83.09
74633;BME280;63139;52.018;8.552;2023-02-21T09:53:33;100778.97;;;10.89;82.40
74633;BME280;63139;52.018;8.552;2023-02-21T09:56:05;100779.00;;;10.98;81.87
74633;BME280;63139;52.018;8.552;2023-02-21T09:58:34;100780.81;;;11.05;82.13
74633;BME280;63139;52.018;8.552;2023-02-21T10:01:10;100785.63;;;11.02;81.00
74633;BME280;63139;52.018;8.552;2023-02-21T10:03:46;100777.69;;;11.10;80.84
74633;BME280;63139;52.018;8.552;2023-02-21T10:06:28;100776.38;;;11.14;80.51
74633;BME280;63139;52.018;8.552;2023-02-21T10:08:59;100781.84;;;11.20;80.17
74633;BME280;63139;52.018;8.552;2023-02-21T10:11:40;100789.94;;;11.19;79.94
74633;BME280;63139;52.018;8.552;2023-02-21T10:14:20;100791.28;;;11.15;80.33
74633;BME280;63139;52.018;8.552;2023-02-21T10:16:53;100793.94;;;11.23;81.36
74633;BME280;63139;52.018;8.552;2023-02-21T10:19:27;100789.78;;;11.28;81.33
74633;BME280;63139;52.018;8.552;2023-02-21T10:21:57;100795.59;;;11.24;80.77
74633;BME280;63139;52.018;8.552;2023-02-21T10:24:27;100789.97;;;11.11;80.63
74633;BME280;63139;52.018;8.552;2023-02-21T10:26:59;100795.91;;;11.13;81.35
74633;BME280;63139;52.018;8.552;2023-02-21T10:29:36;100788.63;;;11.23;79.75
74633;BME280;63139;52.018;8.552;2023-02-21T10:32:07;100790.13;;;11.17;80.30
74633;BME280;63139;52.018;8.552;2023-02-21T10:34:36;100788.31;;;11.18;80.63
74633;BME280;63139;52.018;8.552;2023-02-21T10:37:20;100792.78;;;11.25;79.83
74633;BME280;63139;52.018;8.552;2023-02-21T10:39:53;100796.75;;;11.29;80.22
74633;BME280;63139;52.018;8.552;2023-02-21T10:42:29;100790.13;;;11.42;79.83
74633;BME280;63139;52.018;8.552;2023-02-21T10:44:58;100794.59;;;11.57;79.50
74633;BME280;63139;52.018;8.552;2023-02-21T10:47:33;100796.25;;;11.58;79.09
74633;BME280;63139;52.018;8.552;2023-02-21T10:50:10;100792.13;;;11.56;78.69
74633;BME280;63139;52.018;8.552;2023-02-21T10:52:46;100785.97;;;11.72;77.96
74633;BME280;63139;52.018;8.552;2023-02-21T10:55:16;100790.97;;;11.75;78.94
74633;BME280;63139;52.018;8.552;2023-02-21T10:58:05;100789.97;;;11.76;78.06
74633;BME280;63139;52.018;8.552;2023-02-21T11:00:35;100792.13;;;11.80;78.01
74633;BME280;63139;52.018;8.552;2023-02-21T11:03:06;100788.78;;;11.86;78.22
74633;BME280;63139;52.018;8.552;2023-02-21T11:05:41;100788.75;;;12.02;77.95
74633;BME280;63139;52.018;8.552;2023-02-21T11:08:14;100781.47;;;11.96;77.92
74633;BME280;63139;52.018;8.552;2023-02-21T11:11:00;100790.09;;;12.07;78.16
74633;BME280;63139;52.018;8.552;2023-02-21T11:13:29;100784.78;;;12.07;76.96
74633;BME280;63139;52.018;8.552;2023-02-21T11:16:08;100784.25;;;12.11;76.71
74633;BME280;63139;52.018;8.552;2023-02-21T11:18:36;100777.84;;;11.97;76.82
74633;BME280;63139;52.018;8.552;2023-02-21T11:21:12;100784.94;;;12.05;76.76
74633;BME280;63139;52.018;8.552;2023-02-21T11:23:44;100786.41;;;12.16;77.18
74633;BME280;63139;52.018;8.552;2023-02-21T11:26:13;100777.81;;;12.05;77.10
74633;BME280;63139;52.018;8.552;2023-02-21T11:28:42;100782.13;;;12.07;77.92
74633;BME280;63139;52.018;8.552;2023-02-21T11:31:15;100780.81;;;12.02;76.92
74633;BME280;63139;52.018;8.552;2023-02-21T11:33:50;100773.22;;;11.91;77.48
74633;BME280;63139;52.018;8.552;2023-02-21T11:36:26;100775.53;;;11.86;77.76
74633;BME280;63139;52.018;8.552;2023-02-21T11:39:05;100777.84;;;11.73;77.69
74633;BME280;63139;52.018;8.552;2023-02-21T11:41:36;100781.84;;;11.69;78.18
74633;BME280;63139;52.018;8.552;2023-02-21T11:44:23;100784.16;;;11.64;78.67
74633;BME280;63139;52.018;8.552;2023-02-21T11:47:00;100780.03;;;11.53;78.03
74633;BME280;63139;52.018;8.552;2023-02-21T11:49:37;100777.88;;;11.41;78.94
74633;BME280;63139;52.018;8.552;2023-02-21T11:52:12;100771.75;;;11.32;78.87
74633;BME280;63139;52.018;8.552;2023-02-21T11:54:42;100782.19;;;11.25;79.42
74633;BME280;63139;52.018;8.552;2023-02-21T11:57:17;100780.03;;;11.29;79.13
74633;BME280;63139;52.018;8.552;2023-02-21T11:59:52;100776.69;;;11.19;79.21
74633;BME280;63139;52.018;8.552;2023-02-21T12:02:52;100779.53;;;11.17;79.50
74633;BME280;63139;52.018;8.552;2023-02-21T12:05:34;100771.41;;;11.19;79.48
74633;BME280;63139;52.018;8.552;2023-02-21T12:08:18;100770.91;;;11.23;79.38
74633;BME280;63139;52.018;8.552;2023-02-21T12:10:59;100763.13;;;11.30;79.13
74633;BME280;63139;52.018;8.552;2023-02-21T12:13:37;100763.28;;;11.28;78.80
74633;BME280;63139;52.018;8.552;2023-02-21T12:16:18;100766.09;;;11.35;79.37
74633;BME280;63139;52.018;8.552;2023-02-21T12:19:03;100768.75;;;11.35;78.41
74633;BME280;63139;52.018;8.552;2023-02-21T12:21:52;100761.78;;;11.42;79.00
74633;BME280;63139;52.018;8.552;2023-02-21T12:24:36;100766.94;;;11.44;78.80
74633;BME280;63139;52.018;8.552;2023-02-21T12:27:14;100764.78;;;11.47;78.78
74633;BME280;63139;52.018;8.552;2023-02-21T12:29:56;100763.81;;;11.40;79.09
74633;BME280;63139;52.018;8.552;2023-02-21T12:32:36;100750.53;;;11.40;79.35
74633;BME280;63139;52.018;8.552;2023-02-21T12:35:29;100758.50;;;11.32;78.92
74633;BME280;63139;52.018;8.552;2023-02-21T12:38:03;100755.19;;;11.22;79.42
74633;BME280;63139;52.018;8.552;2023-02-21T12:40:38;100750.03;;;11.20;79.74
74633;BME280;63139;52.018;8.552;2023-02-21T12:43:26;100751.38;;;11.16;79.48
74633;BME280;63139;52.018;8.552;2023-02-21T12:46:02;100754.50;;;11.20;80.09
74633;BME280;63139;52.018;8.552;2023-02-21T12:48:39;100746.91;;;11.17;79.82
74633;BME280;63139;52.018;8.552;2023-02-21T12:51:12;100748.22;;;11.13;79.87
74633;BME280;63139;52.018;8.552;2023-02-21T12:53:46;100744.25;;;11.09;80.01
74633;BME280;63139;52.018;8.552;2023-02-21T12:56:21;100751.53;;;11.07;80.11
74633;BME280;63139;52.018;8.552;2023-02-21T12:58:55;100740.59;;;11.10;80.04
74633;BME280;63139;52.018;8.552;2023-02-21T13:01:28;100742.25;;;11.03;79.24
74633;BME280;63139;52.018;8.552;2023-02-21T13:04:05;100741.09;;;11.13;79.41
74633;BME280;63139;52.018;8.552;2023-02-21T13:06:44;100739.09;;;11.15;79.62
74633;BME280;63139;52.018;8.552;2023-02-21T13:09:21;100740.75;;;11.08;79.40
74633;BME280;63139;52.018;8.552;2023-02-21T13:11:58;100732.81;;;11.08;79.39
74633;BME280;63139;52.018;8.552;2023-02-21T13:14:31;100737.28;;;11.08;79.44
74633;BME280;63139;52.018;8.552;2023-02-21T13:17:00;100731.47;;;11.12;79.88
74633;BME280;63139;52.018;8.552;2023-02-21T13:19:35;100730.16;;;11.16;79.67
74633;BME280;63139;52.018;8.552;2023-02-21T13:25:43;100726.84;;;11.14;79.74
74633;BME280;63139;52.018;8.552;2023-02-21T13:28:19;100723.38;;;11.06;79.60
74633;BME280;63139;52.018;8.552;2023-02-21T13:30:50;100725.03;;;11.07;79.86
74633;BME280;63139;52.018;8.552;2023-02-21T13:33:28;100711.78;;;10.99;79.84
74633;BME280;63139;52.018;8.552;2023-02-21T13:35:57;100715.75;;;10.95;80.03
74633;BME280;63139;52.018;8.552;2023-02-21T13:38:28;100705.47;;;10.92;79.53
74633;BME280;63139;52.018;8.552;2023-02-21T13:41:05;100707.13;;;10.84;80.09
74633;BME280;63139;52.018;8.552;2023-02-21T13:43:45;100711.28;;;10.79;80.13
74633;BME280;63139;52.018;8.552;2023-02-21T13:49:54;100708.94;;;10.84;80.38